sensor_id;sensor_type;location;lat;lon;timestamp;P1;durP1;ratioP1;P2;durP2;ratioP2
8219;SDS011;4151;51.110;7.020;2023-07-20T00:00:52;9.10;;;3.43;;
8219;SDS011;4151;51.110;7.020;2023-07-20T00:03:18;7.10;;;3.83;;
8219;SDS011;4151;51.110;7.020;2023-07-20T00:05:50;10.77;;;3.60;;
8219;SDS011;4151;51.110;7.020;2023-07-20T00:08:16;6.37;;;3.10;;
8219;SDS011;4151;51.110;7.020;2023-07-20T00:10:43;7.80;;;3.37;;
8219;SDS011;4151;51.110;7.020;2023-07-20T00:13:09;8.53;;;3.40;;
8219;SDS011;4151;51.110;7.020;2023-07-20T00:15:40;7.73;;;3.00;;
8219;SDS011;4151;51.110;7.020;2023-07-20T00:18:06;6.80;;;3.13;;
8219;SDS011;4151;51.110;7.020;2023-07-20T00:20:32;10.50;;;2.63;;
8219;SDS011;4151;51.110;7.020;2023-07-20T00:22:57;8.97;;;3.60;;
8219;SDS011;4151;51.110;7.020;2023-07-20T00:25:26;5.17;;;3.60;;
8219;SDS011;4151;51.110;7.020;2023-07-20T00:27:52;5.33;;;3.07;;
8219;SDS011;4151;51.110;7.020;2023-07-20T00:30:18;4.50;;;2.97;;
8219;SDS011;4151;51.110;7.020;2023-07-20T00:32:43;9.60;;;3.50;;
8219;SDS011;4151;51.110;7.020;2023-07-20T00:35:09;6.40;;;3.70;;
8219;SDS011;4151;51.110;7.020;2023-07-20T00:37:36;7.73;;;3.20;;
8219;SDS011;4151;51.110;7.020;2023-07-20T00:40:02;3.80;;;3.10;;
8219;SDS011;4151;51.110;7.020;2023-07-20T00:42:30;6.70;;;3.30;;
8219;SDS011;4151;51.110;7.020;2023-07-20T00:44:56;11.70;;;3.30;;
8219;SDS011;4151;51.110;7.020;2023-07-20T00:47:21;9.70;;;4.17;;
8219;SDS011;4151;51.110;7.020;2023-07-20T00:49:47;3.23;;;2.47;;
8219;SDS011;4151;51.110;7.020;2023-07-20T00:52:13;5.93;;;3.30;;
8219;SDS011;4151;51.110;7.020;2023-07-20T00:54:39;7.07;;;3.60;;
8219;SDS011;4151;51.110;7.020;2023-07-20T00:57:06;9.17;;;3.73;;
8219;SDS011;4151;51.110;7.020;2023-07-20T00:59:33;10.20;;;3.40;;
8219;SDS011;4151;51.110;7.020;2023-07-20T01:02:00;10.93;;;4.07;;
8219;SDS011;4151;51.110;7.020;2023-07-20T01:04:26;7.30;;;3.40;;
8219;SDS011;4151;51.110;7.020;2023-07-20T01:06:57;7.73;;;3.43;;
8219;SDS011;4151;51.110;7.020;2023-07-20T01:10:12;11.50;;;3.40;;
8219;SDS011;4151;51.110;7.020;2023-07-20T01:15:08;4.23;;;2.60;;
8219;SDS011;4151;51.110;7.020;2023-07-20T01:17:35;5.60;;;4.10;;
8219;SDS011;4151;51.110;7.020;2023-07-20T01:20:01;7.47;;;3.53;;
8219;SDS011;4151;51.110;7.020;2023-07-20T01:33:26;5.23;;;3.40;;
8219;SDS011;4151;51.110;7.020;2023-07-20T01:35:56;8.80;;;3.40;;
8219;SDS011;4151;51.110;7.020;2023-07-20T01:38:23;5.67;;;3.47;;
8219;SDS011;4151;51.110;7.020;2023-07-20T01:40:49;15.27;;;3.60;;
8219;SDS011;4151;51.110;7.020;2023-07-20T01:43:16;8.53;;;4.23;;
8219;SDS011;4151;51.110;7.020;2023-07-20T01:45:42;8.83;;;3.80;;
8219;SDS011;4151;51.110;7.020;2023-07-20T01:48:08;9.07;;;4.20;;
8219;SDS011;4151;51.110;7.020;2023-07-20T01:50:34;7.53;;;4.57;;
8219;SDS011;4151;51.110;7.020;2023-07-20T01:53:00;9.73;;;3.83;;
8219;SDS011;4151;51.110;7.020;2023-07-20T01:55:26;10.47;;;3.90;;
8219;SDS011;4151;51.110;7.020;2023-07-20T01:57:52;9.93;;;3.97;;
8219;SDS011;4151;51.110;7.020;2023-07-20T02:00:18;7.13;;;4.00;;
8219;SDS011;4151;51.110;7.020;2023-07-20T02:02:46;7.20;;;3.70;;
8219;SDS011;4151;51.110;7.020;2023-07-20T02:05:12;11.13;;;4.60;;
8219;SDS011;4151;51.110;7.020;2023-07-20T02:07:38;8.67;;;3.37;;
8219;SDS011;4151;51.110;7.020;2023-07-20T02:10:03;9.30;;;4.10;;
8219;SDS011;4151;51.110;7.020;2023-07-20T02:12:29;10.27;;;5.23;;
8219;SDS011;4151;51.110;7.020;2023-07-20T02:14:55;9.27;;;4.03;;
8219;SDS011;4151;51.110;7.020;2023-07-20T02:17:20;12.90;;;4.40;;
8219;SDS011;4151;51.110;7.020;2023-07-20T02:19:46;6.10;;;3.77;;
8219;SDS011;4151;51.110;7.020;2023-07-20T02:22:14;8.23;;;4.50;;
8219;SDS011;4151;51.110;7.020;2023-07-20T02:24:40;8.60;;;4.53;;
8219;SDS011;4151;51.110;7.020;2023-07-20T02:27:05;7.40;;;3.80;;
8219;SDS011;4151;51.110;7.020;2023-07-20T02:29:32;9.30;;;4.03;;
8219;SDS011;4151;51.110;7.020;2023-07-20T02:31:57;9.40;;;4.57;;
8219;SDS011;4151;51.110;7.020;2023-07-20T02:34:23;8.90;;;4.47;;
8219;SDS011;4151;51.110;7.020;2023-07-20T02:36:48;11.90;;;4.30;;
8219;SDS011;4151;51.110;7.020;2023-07-20T02:39:14;10.63;;;4.33;;
8219;SDS011;4151;51.110;7.020;2023-07-20T02:41:39;8.93;;;4.33;;
8219;SDS011;4151;51.110;7.020;2023-07-20T02:44:06;8.50;;;3.80;;
8219;SDS011;4151;51.110;7.020;2023-07-20T02:46:32;11.27;;;3.83;;
8219;SDS011;4151;51.110;7.020;2023-07-20T02:48:57;9.27;;;4.13;;
8219;SDS011;4151;51.110;7.020;2023-07-20T02:51:23;8.33;;;4.70;;
8219;SDS011;4151;51.110;7.020;2023-07-20T02:53:48;8.60;;;4.67;;
8219;SDS011;4151;51.110;7.020;2023-07-20T02:56:14;7.03;;;3.80;;
8219;SDS011;4151;51.110;7.020;2023-07-20T02:58:41;14.03;;;4.83;;
8219;SDS011;4151;51.110;7.020;2023-07-20T03:01:11;8.07;;;3.97;;
8219;SDS011;4151;51.110;7.020;2023-07-20T03:03:37;13.43;;;4.37;;
8219;SDS011;4151;51.110;7.020;2023-07-20T03:06:03;10.27;;;5.60;;
8219;SDS011;4151;51.110;7.020;2023-07-20T03:08:33;12.53;;;4.43;;
8219;SDS011;4151;51.110;7.020;2023-07-20T03:10:59;6.97;;;4.10;;
8219;SDS011;4151;51.110;7.020;2023-07-20T03:13:24;12.23;;;5.13;;
8219;SDS011;4151;51.110;7.020;2023-07-20T03:15:51;7.23;;;3.77;;
8219;SDS011;4151;51.110;7.020;2023-07-20T03:18:17;7.27;;;3.63;;
8219;SDS011;4151;51.110;7.020;2023-07-20T03:20:43;7.63;;;4.33;;
8219;SDS011;4151;51.110;7.020;2023-07-20T03:23:08;12.87;;;4.87;;
8219;SDS011;4151;51.110;7.020;2023-07-20T03:25:34;7.97;;;4.63;;
8219;SDS011;4151;51.110;7.020;2023-07-20T03:28:02;6.47;;;4.53;;
8219;SDS011;4151;51.110;7.020;2023-07-20T03:30:28;7.87;;;4.20;;
8219;SDS011;4151;51.110;7.020;2023-07-20T03:32:53;10.87;;;4.37;;
8219;SDS011;4151;51.110;7.020;2023-07-20T03:35:19;11.73;;;5.10;;
8219;SDS011;4151;51.110;7.020;2023-07-20T03:37:44;21.57;;;6.10;;
8219;SDS011;4151;51.110;7.020;2023-07-20T03:40:10;7.80;;;4.43;;
8219;SDS011;4151;51.110;7.020;2023-07-20T03:42:36;9.80;;;4.53;;
8219;SDS011;4151;51.110;7.020;2023-07-20T03:45:01;13.40;;;4.83;;
8219;SDS011;4151;51.110;7.020;2023-07-20T03:47:28;9.20;;;4.90;;
8219;SDS011;4151;51.110;7.020;2023-07-20T03:49:53;11.33;;;4.83;;
8219;SDS011;4151;51.110;7.020;2023-07-20T03:52:19;11.57;;;5.67;;
8219;SDS011;4151;51.110;7.020;2023-07-20T03:54:44;7.60;;;4.30;;
8219;SDS011;4151;51.110;7.020;2023-07-20T03:57:10;10.47;;;4.37;;
8219;SDS011;4151;51.110;7.020;2023-07-20T03:59:37;9.87;;;5.50;;
8219;SDS011;4151;51.110;7.020;2023-07-20T04:02:02;9.27;;;4.63;;
8219;SDS011;4151;51.110;7.020;2023-07-20T04:04:30;18.43;;;5.07;;
8219;SDS011;4151;51.110;7.020;2023-07-20T04:06:55;10.90;;;5.17;;
8219;SDS011;4151;51.110;7.020;2023-07-20T04:09:21;12.43;;;4.70;;
8219;SDS011;4151;51.110;7.020;2023-07-20T04:11:46;10.50;;;4.83;;
8219;SDS011;4151;51.110;7.020;2023-07-20T04:14:12;7.57;;;4.73;;
8219;SDS011;4151;51.110;7.020;2023-07-20T04:16:37;16.23;;;4.80;;
8219;SDS011;4151;51.110;7.020;2023-07-20T04:19:03;17.43;;;4.73;;
8219;SDS011;4151;51.110;7.020;2023-07-20T04:21:29;8.40;;;4.80;;
8219;SDS011;4151;51.110;7.020;2023-07-20T04:23:54;13.60;;;5.10;;
8219;SDS011;4151;51.110;7.020;2023-07-20T04:26:20;17.70;;;5.60;;
8219;SDS011;4151;51.110;7.020;2023-07-20T04:28:45;8.17;;;4.20;;
8219;SDS011;4151;51.110;7.020;2023-07-20T04:31:12;9.67;;;4.90;;
8219;SDS011;4151;51.110;7.020;2023-07-20T04:33:39;14.90;;;5.47;;
8219;SDS011;4151;51.110;7.020;2023-07-20T04:36:04;14.80;;;6.30;;
8219;SDS011;4151;51.110;7.020;2023-07-20T04:38:30;14.30;;;5.00;;
8219;SDS011;4151;51.110;7.020;2023-07-20T04:40:56;9.33;;;5.53;;
8219;SDS011;4151;51.110;7.020;2023-07-20T04:43:21;13.83;;;5.47;;
8219;SDS011;4151;51.110;7.020;2023-07-20T04:45:47;11.60;;;6.37;;
8219;SDS011;4151;51.110;7.020;2023-07-20T04:48:14;13.60;;;5.93;;
8219;SDS011;4151;51.110;7.020;2023-07-20T04:50:40;15.00;;;6.17;;
8219;SDS011;4151;51.110;7.020;2023-07-20T04:53:07;14.40;;;6.50;;
8219;SDS011;4151;51.110;7.020;2023-07-20T04:55:35;11.63;;;5.20;;
8219;SDS011;4151;51.110;7.020;2023-07-20T04:58:01;10.73;;;5.57;;
8219;SDS011;4151;51.110;7.020;2023-07-20T05:00:28;11.57;;;5.77;;
8219;SDS011;4151;51.110;7.020;2023-07-20T05:02:54;14.33;;;6.10;;
8219;SDS011;4151;51.110;7.020;2023-07-20T05:05:20;12.93;;;6.20;;
8219;SDS011;4151;51.110;7.020;2023-07-20T05:07:45;15.87;;;6.23;;
8219;SDS011;4151;51.110;7.020;2023-07-20T05:10:11;14.23;;;5.30;;
8219;SDS011;4151;51.110;7.020;2023-07-20T05:12:37;11.70;;;6.13;;
8219;SDS011;4151;51.110;7.020;2023-07-20T05:15:02;17.00;;;6.70;;
8219;SDS011;4151;51.110;7.020;2023-07-20T05:17:29;18.93;;;7.33;;
8219;SDS011;4151;51.110;7.020;2023-07-20T05:19:54;17.13;;;7.50;;
8219;SDS011;4151;51.110;7.020;2023-07-20T05:22:20;18.13;;;7.17;;
8219;SDS011;4151;51.110;7.020;2023-07-20T05:24:45;15.60;;;7.83;;
8219;SDS011;4151;51.110;7.020;2023-07-20T05:27:11;19.17;;;7.70;;
8219;SDS011;4151;51.110;7.020;2023-07-20T05:29:37;15.83;;;8.30;;
8219;SDS011;4151;51.110;7.020;2023-07-20T05:32:02;16.07;;;8.60;;
8219;SDS011;4151;51.110;7.020;2023-07-20T05:34:28;17.67;;;8.20;;
8219;SDS011;4151;51.110;7.020;2023-07-20T05:36:54;18.00;;;8.90;;
8219;SDS011;4151;51.110;7.020;2023-07-20T05:39:20;22.40;;;9.57;;
8219;SDS011;4151;51.110;7.020;2023-07-20T05:41:46;19.63;;;8.50;;
8219;SDS011;4151;51.110;7.020;2023-07-20T05:44:11;18.30;;;8.87;;
8219;SDS011;4151;51.110;7.020;2023-07-20T05:46:37;24.70;;;9.90;;
8219;SDS011;4151;51.110;7.020;2023-07-20T05:49:03;17.83;;;9.97;;
8219;SDS011;4151;51.110;7.020;2023-07-20T05:51:28;15.50;;;10.40;;
8219;SDS011;4151;51.110;7.020;2023-07-20T05:53:54;26.50;;;10.40;;
8219;SDS011;4151;51.110;7.020;2023-07-20T05:56:19;24.97;;;11.17;;
8219;SDS011;4151;51.110;7.020;2023-07-20T05:58:45;17.70;;;10.13;;
8219;SDS011;4151;51.110;7.020;2023-07-20T06:01:10;21.10;;;9.90;;
8219;SDS011;4151;51.110;7.020;2023-07-20T06:03:36;19.60;;;9.97;;
8219;SDS011;4151;51.110;7.020;2023-07-20T06:06:03;34.17;;;10.57;;
8219;SDS011;4151;51.110;7.020;2023-07-20T06:08:31;14.20;;;9.23;;
8219;SDS011;4151;51.110;7.020;2023-07-20T06:10:57;17.00;;;10.47;;
8219;SDS011;4151;51.110;7.020;2023-07-20T06:13:22;15.80;;;9.10;;
8219;SDS011;4151;51.110;7.020;2023-07-20T06:15:49;24.43;;;9.47;;
8219;SDS011;4151;51.110;7.020;2023-07-20T06:18:14;16.83;;;10.90;;
8219;SDS011;4151;51.110;7.020;2023-07-20T06:20:40;17.97;;;11.07;;
8219;SDS011;4151;51.110;7.020;2023-07-20T06:23:06;18.97;;;11.80;;
8219;SDS011;4151;51.110;7.020;2023-07-20T06:25:31;17.83;;;11.13;;
8219;SDS011;4151;51.110;7.020;2023-07-20T06:27:57;21.23;;;11.60;;
8219;SDS011;4151;51.110;7.020;2023-07-20T06:30:23;19.60;;;11.23;;
8219;SDS011;4151;51.110;7.020;2023-07-20T06:32:49;19.03;;;10.43;;
8219;SDS011;4151;51.110;7.020;2023-07-20T06:35:15;20.50;;;11.10;;
8219;SDS011;4151;51.110;7.020;2023-07-20T06:37:41;18.23;;;10.60;;
8219;SDS011;4151;51.110;7.020;2023-07-20T06:40:07;16.63;;;10.23;;
8219;SDS011;4151;51.110;7.020;2023-07-20T06:42:34;24.37;;;11.67;;
8219;SDS011;4151;51.110;7.020;2023-07-20T06:45:00;19.10;;;12.30;;
8219;SDS011;4151;51.110;7.020;2023-07-20T06:47:25;16.27;;;10.40;;
8219;SDS011;4151;51.110;7.020;2023-07-20T06:49:51;25.87;;;12.23;;
8219;SDS011;4151;51.110;7.020;2023-07-20T06:52:17;27.43;;;12.60;;
8219;SDS011;4151;51.110;7.020;2023-07-20T06:54:43;23.77;;;11.80;;
8219;SDS011;4151;51.110;7.020;2023-07-20T06:57:08;17.27;;;11.73;;
8219;SDS011;4151;51.110;7.020;2023-07-20T06:59:34;18.10;;;10.60;;
8219;SDS011;4151;51.110;7.020;2023-07-20T07:01:59;16.73;;;10.27;;
8219;SDS011;4151;51.110;7.020;2023-07-20T07:04:25;15.23;;;10.30;;
8219;SDS011;4151;51.110;7.020;2023-07-20T07:06:51;17.43;;;10.07;;
8219;SDS011;4151;51.110;7.020;2023-07-20T07:09:16;20.80;;;10.93;;
8219;SDS011;4151;51.110;7.020;2023-07-20T07:11:43;16.83;;;9.80;;
8219;SDS011;4151;51.110;7.020;2023-07-20T07:14:09;24.97;;;11.40;;
8219;SDS011;4151;51.110;7.020;2023-07-20T07:16:35;16.93;;;9.30;;
8219;SDS011;4151;51.110;7.020;2023-07-20T07:19:00;16.97;;;10.23;;
8219;SDS011;4151;51.110;7.020;2023-07-20T07:21:26;16.13;;;9.97;;
8219;SDS011;4151;51.110;7.020;2023-07-20T07:23:51;19.10;;;12.20;;
8219;SDS011;4151;51.110;7.020;2023-07-20T07:26:19;19.80;;;10.70;;
8219;SDS011;4151;51.110;7.020;2023-07-20T07:28:45;17.63;;;10.97;;
8219;SDS011;4151;51.110;7.020;2023-07-20T07:31:10;17.10;;;10.63;;
8219;SDS011;4151;51.110;7.020;2023-07-20T07:33:36;14.07;;;9.30;;
8219;SDS011;4151;51.110;7.020;2023-07-20T07:36:01;17.30;;;9.97;;
8219;SDS011;4151;51.110;7.020;2023-07-20T07:38:27;18.90;;;9.97;;
8219;SDS011;4151;51.110;7.020;2023-07-20T07:40:53;16.30;;;10.33;;
8219;SDS011;4151;51.110;7.020;2023-07-20T07:43:18;21.80;;;10.57;;
8219;SDS011;4151;51.110;7.020;2023-07-20T07:45:44;19.93;;;10.13;;
8219;SDS011;4151;51.110;7.020;2023-07-20T07:48:10;15.70;;;10.60;;
8219;SDS011;4151;51.110;7.020;2023-07-20T07:50:39;20.13;;;9.80;;
8219;SDS011;4151;51.110;7.020;2023-07-20T07:53:08;20.27;;;9.27;;
8219;SDS011;4151;51.110;7.020;2023-07-20T07:55:34;16.13;;;9.40;;
8219;SDS011;4151;51.110;7.020;2023-07-20T07:58:00;15.20;;;7.00;;
8219;SDS011;4151;51.110;7.020;2023-07-20T08:00:26;8.23;;;6.43;;
8219;SDS011;4151;51.110;7.020;2023-07-20T08:02:51;14.00;;;6.80;;
8219;SDS011;4151;51.110;7.020;2023-07-20T08:05:17;9.00;;;4.70;;
8219;SDS011;4151;51.110;7.020;2023-07-20T08:07:42;5.87;;;4.80;;
8219;SDS011;4151;51.110;7.020;2023-07-20T08:10:08;6.90;;;4.30;;
8219;SDS011;4151;51.110;7.020;2023-07-20T08:12:34;5.77;;;4.07;;
8219;SDS011;4151;51.110;7.020;2023-07-20T08:15:00;5.40;;;3.23;;
8219;SDS011;4151;51.110;7.020;2023-07-20T08:17:26;6.07;;;3.40;;
8219;SDS011;4151;51.110;7.020;2023-07-20T08:19:51;6.87;;;3.80;;
8219;SDS011;4151;51.110;7.020;2023-07-20T08:22:17;7.20;;;4.47;;
8219;SDS011;4151;51.110;7.020;2023-07-20T08:24:42;6.67;;;3.73;;
8219;SDS011;4151;51.110;7.020;2023-07-20T08:27:08;7.30;;;4.20;;
8219;SDS011;4151;51.110;7.020;2023-07-20T08:29:34;15.43;;;5.27;;
8219;SDS011;4151;51.110;7.020;2023-07-20T08:32:01;8.20;;;5.00;;
8219;SDS011;4151;51.110;7.020;2023-07-20T08:34:27;9.40;;;4.80;;
8219;SDS011;4151;51.110;7.020;2023-07-20T08:36:53;6.60;;;3.60;;
8219;SDS011;4151;51.110;7.020;2023-07-20T08:39:18;5.93;;;3.50;;
8219;SDS011;4151;51.110;7.020;2023-07-20T08:41:44;7.53;;;3.60;;
8219;SDS011;4151;51.110;7.020;2023-07-20T08:44:11;4.37;;;2.90;;
8219;SDS011;4151;51.110;7.020;2023-07-20T08:46:37;3.20;;;2.33;;
8219;SDS011;4151;51.110;7.020;2023-07-20T08:49:03;4.10;;;2.73;;
8219;SDS011;4151;51.110;7.020;2023-07-20T08:51:30;4.13;;;2.63;;
8219;SDS011;4151;51.110;7.020;2023-07-20T08:53:56;7.17;;;2.30;;
8219;SDS011;4151;51.110;7.020;2023-07-20T08:56:21;4.77;;;2.63;;
8219;SDS011;4151;51.110;7.020;2023-07-20T08:58:51;3.07;;;2.00;;
8219;SDS011;4151;51.110;7.020;2023-07-20T09:01:18;5.80;;;2.17;;
8219;SDS011;4151;51.110;7.020;2023-07-20T09:03:45;3.10;;;2.10;;
8219;SDS011;4151;51.110;7.020;2023-07-20T09:06:11;9.50;;;2.53;;
8219;SDS011;4151;51.110;7.020;2023-07-20T09:08:41;1.93;;;1.77;;
8219;SDS011;4151;51.110;7.020;2023-07-20T09:11:07;4.40;;;2.07;;
8219;SDS011;4151;51.110;7.020;2023-07-20T09:13:33;4.73;;;2.20;;
8219;SDS011;4151;51.110;7.020;2023-07-20T09:15:59;3.73;;;1.60;;
8219;SDS011;4151;51.110;7.020;2023-07-20T09:18:25;3.70;;;1.80;;
8219;SDS011;4151;51.110;7.020;2023-07-20T09:21:01;1.90;;;1.50;;
8219;SDS011;4151;51.110;7.020;2023-07-20T09:23:31;6.37;;;1.77;;
8219;SDS011;4151;51.110;7.020;2023-07-20T09:26:00;2.60;;;1.43;;
8219;SDS011;4151;51.110;7.020;2023-07-20T09:28:48;2.23;;;1.43;;
8219;SDS011;4151;51.110;7.020;2023-07-20T09:31:19;2.90;;;1.70;;
8219;SDS011;4151;51.110;7.020;2023-07-20T09:33:46;5.50;;;2.40;;
8219;SDS011;4151;51.110;7.020;2023-07-20T09:36:13;3.60;;;2.40;;
8219;SDS011;4151;51.110;7.020;2023-07-20T09:38:40;2.70;;;1.87;;
8219;SDS011;4151;51.110;7.020;2023-07-20T09:41:07;2.70;;;2.00;;
8219;SDS011;4151;51.110;7.020;2023-07-20T09:43:33;2.70;;;1.83;;
8219;SDS011;4151;51.110;7.020;2023-07-20T09:45:59;2.37;;;1.90;;
8219;SDS011;4151;51.110;7.020;2023-07-20T09:48:25;2.97;;;1.90;;
8219;SDS011;4151;51.110;7.020;2023-07-20T09:50:51;3.50;;;2.33;;
8219;SDS011;4151;51.110;7.020;2023-07-20T09:53:18;2.87;;;2.20;;
8219;SDS011;4151;51.110;7.020;2023-07-20T09:55:45;4.30;;;2.67;;
8219;SDS011;4151;51.110;7.020;2023-07-20T09:58:12;2.47;;;2.20;;
8219;SDS011;4151;51.110;7.020;2023-07-20T10:00:39;3.10;;;2.20;;
8219;SDS011;4151;51.110;7.020;2023-07-20T10:03:10;3.63;;;2.07;;
8219;SDS011;4151;51.110;7.020;2023-07-20T10:05:39;2.10;;;1.60;;
8219;SDS011;4151;51.110;7.020;2023-07-20T10:08:08;8.40;;;2.20;;
8219;SDS011;4151;51.110;7.020;2023-07-20T10:10:37;3.20;;;2.63;;
8219;SDS011;4151;51.110;7.020;2023-07-20T10:13:06;3.70;;;3.20;;
8219;SDS011;4151;51.110;7.020;2023-07-20T10:15:42;4.20;;;3.10;;
8219;SDS011;4151;51.110;7.020;2023-07-20T10:18:17;2.93;;;2.60;;
8219;SDS011;4151;51.110;7.020;2023-07-20T10:20:48;3.53;;;3.20;;
8219;SDS011;4151;51.110;7.020;2023-07-20T10:23:16;5.03;;;2.90;;
8219;SDS011;4151;51.110;7.020;2023-07-20T10:25:42;3.50;;;2.57;;
8219;SDS011;4151;51.110;7.020;2023-07-20T10:28:08;3.50;;;2.37;;
8219;SDS011;4151;51.110;7.020;2023-07-20T10:30:36;2.40;;;2.20;;
8219;SDS011;4151;51.110;7.020;2023-07-20T10:33:02;4.03;;;1.97;;
8219;SDS011;4151;51.110;7.020;2023-07-20T10:35:29;6.07;;;1.87;;
8219;SDS011;4151;51.110;7.020;2023-07-20T10:37:59;3.13;;;1.57;;
8219;SDS011;4151;51.110;7.020;2023-07-20T10:41:11;1.70;;;1.40;;
8219;SDS011;4151;51.110;7.020;2023-07-20T10:43:35;3.47;;;1.87;;
8219;SDS011;4151;51.110;7.020;2023-07-20T10:46:02;2.30;;;1.47;;
8219;SDS011;4151;51.110;7.020;2023-07-20T10:48:28;4.70;;;1.83;;
8219;SDS011;4151;51.110;7.020;2023-07-20T10:51:12;1.70;;;1.30;;
8219;SDS011;4151;51.110;7.020;2023-07-20T10:53:39;1.47;;;1.33;;
8219;SDS011;4151;51.110;7.020;2023-07-20T10:56:05;1.83;;;1.60;;
8219;SDS011;4151;51.110;7.020;2023-07-20T10:58:33;4.03;;;1.77;;
8219;SDS011;4151;51.110;7.020;2023-07-20T11:01:02;2.57;;;2.10;;
8219;SDS011;4151;51.110;7.020;2023-07-20T11:03:37;3.70;;;2.27;;
8219;SDS011;4151;51.110;7.020;2023-07-20T11:08:54;4.30;;;2.40;;
8219;SDS011;4151;51.110;7.020;2023-07-20T11:11:27;2.20;;;1.90;;
8219;SDS011;4151;51.110;7.020;2023-07-20T11:14:00;1.83;;;1.37;;
8219;SDS011;4151;51.110;7.020;2023-07-20T11:19:05;3.53;;;1.70;;
8219;SDS011;4151;51.110;7.020;2023-07-20T11:21:40;2.23;;;1.70;;
8219;SDS011;4151;51.110;7.020;2023-07-20T11:24:07;1.97;;;1.70;;
8219;SDS011;4151;51.110;7.020;2023-07-20T11:26:48;2.90;;;2.20;;
8219;SDS011;4151;51.110;7.020;2023-07-20T11:29:15;4.23;;;1.90;;
8219;SDS011;4151;51.110;7.020;2023-07-20T11:31:43;2.50;;;1.90;;
8219;SDS011;4151;51.110;7.020;2023-07-20T11:34:16;2.87;;;2.07;;
8219;SDS011;4151;51.110;7.020;2023-07-20T11:36:44;2.77;;;2.10;;
8219;SDS011;4151;51.110;7.020;2023-07-20T11:39:11;3.23;;;1.43;;
8219;SDS011;4151;51.110;7.020;2023-07-20T11:41:47;2.17;;;1.43;;
8219;SDS011;4151;51.110;7.020;2023-07-20T11:44:13;4.20;;;1.80;;
8219;SDS011;4151;51.110;7.020;2023-07-20T11:46:40;2.80;;;1.47;;
8219;SDS011;4151;51.110;7.020;2023-07-20T11:49:07;2.43;;;1.10;;
8219;SDS011;4151;51.110;7.020;2023-07-20T11:51:33;2.03;;;1.50;;
8219;SDS011;4151;51.110;7.020;2023-07-20T11:54:01;1.60;;;0.93;;
8219;SDS011;4151;51.110;7.020;2023-07-20T11:56:27;2.93;;;1.33;;
8219;SDS011;4151;51.110;7.020;2023-07-20T11:58:59;5.93;;;1.20;;
8219;SDS011;4151;51.110;7.020;2023-07-20T12:01:27;1.50;;;1.07;;
8219;SDS011;4151;51.110;7.020;2023-07-20T12:04:00;2.00;;;0.97;;
8219;SDS011;4151;51.110;7.020;2023-07-20T12:06:29;4.53;;;1.23;;
8219;SDS011;4151;51.110;7.020;2023-07-20T12:08:56;2.13;;;1.10;;
8219;SDS011;4151;51.110;7.020;2023-07-20T12:11:35;1.63;;;1.10;;
8219;SDS011;4151;51.110;7.020;2023-07-20T12:14:02;1.40;;;1.00;;
8219;SDS011;4151;51.110;7.020;2023-07-20T12:16:29;2.33;;;1.30;;
8219;SDS011;4151;51.110;7.020;2023-07-20T12:18:59;2.70;;;1.30;;
8219;SDS011;4151;51.110;7.020;2023-07-20T12:21:26;1.90;;;1.23;;
8219;SDS011;4151;51.110;7.020;2023-07-20T12:23:51;2.33;;;1.50;;
8219;SDS011;4151;51.110;7.020;2023-07-20T12:26:17;1.40;;;1.10;;
8219;SDS011;4151;51.110;7.020;2023-07-20T12:28:42;10.40;;;1.77;;
8219;SDS011;4151;51.110;7.020;2023-07-20T12:31:08;2.03;;;1.23;;
8219;SDS011;4151;51.110;7.020;2023-07-20T12:33:35;1.73;;;1.27;;
8219;SDS011;4151;51.110;7.020;2023-07-20T12:36:02;3.03;;;1.70;;
8219;SDS011;4151;51.110;7.020;2023-07-20T12:38:27;1.50;;;0.90;;
8219;SDS011;4151;51.110;7.020;2023-07-20T12:40:53;1.50;;;1.00;;
8219;SDS011;4151;51.110;7.020;2023-07-20T12:43:23;3.93;;;1.00;;
8219;SDS011;4151;51.110;7.020;2023-07-20T12:45:49;3.40;;;1.10;;
8219;SDS011;4151;51.110;7.020;2023-07-20T12:48:14;1.77;;;0.90;;
8219;SDS011;4151;51.110;7.020;2023-07-20T12:50:40;2.43;;;1.20;;
8219;SDS011;4151;51.110;7.020;2023-07-20T12:53:05;1.70;;;0.90;;
8219;SDS011;4151;51.110;7.020;2023-07-20T12:55:31;3.03;;;0.90;;
8219;SDS011;4151;51.110;7.020;2023-07-20T12:57:57;2.17;;;1.10;;
8219;SDS011;4151;51.110;7.020;2023-07-20T13:00:22;1.53;;;1.00;;
8219;SDS011;4151;51.110;7.020;2023-07-20T13:02:49;1.40;;;1.07;;
8219;SDS011;4151;51.110;7.020;2023-07-20T13:05:15;3.70;;;1.40;;
8219;SDS011;4151;51.110;7.020;2023-07-20T13:07:41;3.47;;;1.17;;
8219;SDS011;4151;51.110;7.020;2023-07-20T13:10:07;1.87;;;1.20;;
8219;SDS011;4151;51.110;7.020;2023-07-20T13:12:34;1.67;;;1.07;;
8219;SDS011;4151;51.110;7.020;2023-07-20T13:15:07;1.83;;;1.30;;
8219;SDS011;4151;51.110;7.020;2023-07-20T13:17:37;2.40;;;1.30;;
8219;SDS011;4151;51.110;7.020;2023-07-20T13:20:04;2.07;;;1.00;;
8219;SDS011;4151;51.110;7.020;2023-07-20T13:22:32;1.77;;;1.27;;
8219;SDS011;4151;51.110;7.020;2023-07-20T13:24:59;2.30;;;1.00;;
8219;SDS011;4151;51.110;7.020;2023-07-20T13:27:24;2.40;;;1.00;;
8219;SDS011;4151;51.110;7.020;2023-07-20T13:29:53;2.43;;;1.20;;
8219;SDS011;4151;51.110;7.020;2023-07-20T13:32:18;3.77;;;1.00;;
8219;SDS011;4151;51.110;7.020;2023-07-20T13:34:44;3.63;;;1.10;;
8219;SDS011;4151;51.110;7.020;2023-07-20T13:37:10;3.07;;;1.07;;
8219;SDS011;4151;51.110;7.020;2023-07-20T13:39:36;1.30;;;1.10;;
8219;SDS011;4151;51.110;7.020;2023-07-20T13:42:02;2.00;;;1.10;;
8219;SDS011;4151;51.110;7.020;2023-07-20T13:44:30;1.60;;;1.17;;
8219;SDS011;4151;51.110;7.020;2023-07-20T13:46:56;1.50;;;1.00;;
8219;SDS011;4151;51.110;7.020;2023-07-20T13:49:22;3.90;;;1.40;;
8219;SDS011;4151;51.110;7.020;2023-07-20T13:51:48;2.83;;;1.27;;
8219;SDS011;4151;51.110;7.020;2023-07-20T13:54:13;1.53;;;1.00;;
8219;SDS011;4151;51.110;7.020;2023-07-20T13:56:39;1.50;;;1.13;;
8219;SDS011;4151;51.110;7.020;2023-07-20T13:59:04;1.20;;;1.00;;
8219;SDS011;4151;51.110;7.020;2023-07-20T14:01:30;2.70;;;1.10;;
8219;SDS011;4151;51.110;7.020;2023-07-20T14:03:59;3.17;;;1.23;;
8219;SDS011;4151;51.110;7.020;2023-07-20T14:06:25;2.70;;;1.10;;
8219;SDS011;4151;51.110;7.020;2023-07-20T14:08:51;4.80;;;1.10;;
8219;SDS011;4151;51.110;7.020;2023-07-20T14:11:18;1.67;;;1.07;;
8219;SDS011;4151;51.110;7.020;2023-07-20T14:13:43;2.10;;;1.10;;
8219;SDS011;4151;51.110;7.020;2023-07-20T14:16:09;2.43;;;1.00;;
8219;SDS011;4151;51.110;7.020;2023-07-20T14:18:35;1.40;;;1.17;;
8219;SDS011;4151;51.110;7.020;2023-07-20T14:21:00;3.23;;;1.00;;
8219;SDS011;4151;51.110;7.020;2023-07-20T14:23:28;1.83;;;0.90;;
8219;SDS011;4151;51.110;7.020;2023-07-20T14:25:54;2.13;;;1.00;;
8219;SDS011;4151;51.110;7.020;2023-07-20T14:28:20;2.33;;;1.30;;
8219;SDS011;4151;51.110;7.020;2023-07-20T14:30:45;3.90;;;1.13;;
8219;SDS011;4151;51.110;7.020;2023-07-20T14:33:11;4.57;;;1.30;;
8219;SDS011;4151;51.110;7.020;2023-07-20T14:35:37;2.17;;;1.27;;
8219;SDS011;4151;51.110;7.020;2023-07-20T14:38:03;3.63;;;1.20;;
8219;SDS011;4151;51.110;7.020;2023-07-20T14:40:28;4.73;;;1.70;;
8219;SDS011;4151;51.110;7.020;2023-07-20T14:42:55;6.97;;;1.50;;
8219;SDS011;4151;51.110;7.020;2023-07-20T14:45:21;3.13;;;1.17;;
8219;SDS011;4151;51.110;7.020;2023-07-20T14:47:46;4.40;;;1.00;;
8219;SDS011;4151;51.110;7.020;2023-07-20T14:50:18;4.13;;;1.13;;
8219;SDS011;4151;51.110;7.020;2023-07-20T14:52:44;1.90;;;1.20;;
8219;SDS011;4151;51.110;7.020;2023-07-20T14:55:10;5.33;;;1.10;;
8219;SDS011;4151;51.110;7.020;2023-07-20T14:57:36;1.70;;;1.30;;
8219;SDS011;4151;51.110;7.020;2023-07-20T15:00:02;2.40;;;1.13;;
8219;SDS011;4151;51.110;7.020;2023-07-20T15:02:38;1.80;;;1.17;;
8219;SDS011;4151;51.110;7.020;2023-07-20T15:05:08;1.73;;;1.07;;
8219;SDS011;4151;51.110;7.020;2023-07-20T15:07:34;1.83;;;1.00;;
8219;SDS011;4151;51.110;7.020;2023-07-20T15:10:00;2.77;;;1.00;;
8219;SDS011;4151;51.110;7.020;2023-07-20T15:12:26;2.70;;;1.00;;
8219;SDS011;4151;51.110;7.020;2023-07-20T15:17:34;3.13;;;0.90;;
8219;SDS011;4151;51.110;7.020;2023-07-20T15:20:02;1.57;;;0.90;;
8219;SDS011;4151;51.110;7.020;2023-07-20T15:22:31;1.57;;;0.80;;
8219;SDS011;4151;51.110;7.020;2023-07-20T15:24:58;1.10;;;0.77;;
8219;SDS011;4151;51.110;7.020;2023-07-20T15:27:24;1.57;;;0.93;;
8219;SDS011;4151;51.110;7.020;2023-07-20T15:29:49;1.77;;;0.90;;